sensor_id;sensor_type;location;lat;lon;timestamp;temperature;humidity
28530;DHT22;15737;49.760;6.632;2023-04-25T00:00:40;7.30;99.90
28530;DHT22;15737;49.760;6.632;2023-04-25T00:03:05;7.30;99.90
28530;DHT22;15737;49.760;6.632;2023-04-25T00:05:31;7.30;99.90
28530;DHT22;15737;49.760;6.632;2023-04-25T00:07:57;7.30;99.90
28530;DHT22;15737;49.760;6.632;2023-04-25T00:10:23;7.30;99.90
28530;DHT22;15737;49.760;6.632;2023-04-25T00:12:48;7.30;99.90
28530;DHT22;15737;49.760;6.632;2023-04-25T00:15:14;7.30;99.90
28530;DHT22;15737;49.760;6.632;2023-04-25T00:17:40;7.30;99.90
28530;DHT22;15737;49.760;6.632;2023-04-25T00:20:06;7.30;99.90
28530;DHT22;15737;49.760;6.632;2023-04-25T00:22:34;7.30;99.90
28530;DHT22;15737;49.760;6.632;2023-04-25T00:25:00;7.30;99.90
28530;DHT22;15737;49.760;6.632;2023-04-25T00:27:26;7.30;99.90
28530;DHT22;15737;49.760;6.632;2023-04-25T00:29:52;7.30;99.90
28530;DHT22;15737;49.760;6.632;2023-04-25T00:32:17;7.30;99.90
28530;DHT22;15737;49.760;6.632;2023-04-25T00:34:43;7.30;99.90
28530;DHT22;15737;49.760;6.632;2023-04-25T00:37:08;7.30;99.90
28530;DHT22;15737;49.760;6.632;2023-04-25T00:39:34;7.30;99.90
28530;DHT22;15737;49.760;6.632;2023-04-25T00:42:00;7.30;99.90
28530;DHT22;15737;49.760;6.632;2023-04-25T00:44:27;7.30;99.90
28530;DHT22;15737;49.760;6.632;2023-04-25T00:46:55;7.30;99.90
28530;DHT22;15737;49.760;6.632;2023-04-25T00:49:20;7.30;99.90
28530;DHT22;15737;49.760;6.632;2023-04-25T00:51:46;7.20;99.90
28530;DHT22;15737;49.760;6.632;2023-04-25T00:54:12;7.30;99.90
28530;DHT22;15737;49.760;6.632;2023-04-25T00:56:38;7.30;99.90
28530;DHT22;15737;49.760;6.632;2023-04-25T00:59:04;7.30;99.90
28530;DHT22;15737;49.760;6.632;2023-04-25T01:01:30;7.20;99.90
28530;DHT22;15737;49.760;6.632;2023-04-25T01:03:58;7.20;99.90
28530;DHT22;15737;49.760;6.632;2023-04-25T01:06:24;7.20;99.90
28530;DHT22;15737;49.760;6.632;2023-04-25T01:08:49;7.20;99.90
28530;DHT22;15737;49.760;6.632;2023-04-25T01:11:16;7.20;99.90
28530;DHT22;15737;49.760;6.632;2023-04-25T01:13:42;7.20;99.90
28530;DHT22;15737;49.760;6.632;2023-04-25T01:16:07;7.30;99.90
28530;DHT22;15737;49.760;6.632;2023-04-25T01:18:33;7.40;99.90
28530;DHT22;15737;49.760;6.632;2023-04-25T01:21:10;7.60;99.90
28530;DHT22;15737;49.760;6.632;2023-04-25T01:23:40;7.80;99.90
28530;DHT22;15737;49.760;6.632;2023-04-25T01:26:07;7.90;99.90
28530;DHT22;15737;49.760;6.632;2023-04-25T01:28:34;7.90;99.90
28530;DHT22;15737;49.760;6.632;2023-04-25T01:31:00;7.90;99.90
28530;DHT22;15737;49.760;6.632;2023-04-25T01:33:26;7.80;99.90
28530;DHT22;15737;49.760;6.632;2023-04-25T01:35:51;7.80;99.90
28530;DHT22;15737;49.760;6.632;2023-04-25T01:38:17;7.70;99.90
28530;DHT22;15737;49.760;6.632;2023-04-25T01:40:45;7.70;99.90
28530;DHT22;15737;49.760;6.632;2023-04-25T01:43:11;7.80;99.90
28530;DHT22;15737;49.760;6.632;2023-04-25T01:45:38;7.80;99.90
28530;DHT22;15737;49.760;6.632;2023-04-25T01:48:11;7.70;99.90
28530;DHT22;15737;49.760;6.632;2023-04-25T01:50:38;7.50;99.90
28530;DHT22;15737;49.760;6.632;2023-04-25T01:53:04;7.30;99.90
28530;DHT22;15737;49.760;6.632;2023-04-25T01:55:30;7.20;99.90
28530;DHT22;15737;49.760;6.632;2023-04-25T01:57:56;7.10;99.90
28530;DHT22;15737;49.760;6.632;2023-04-25T02:00:21;7.10;99.90
28530;DHT22;15737;49.760;6.632;2023-04-25T02:02:47;7.10;99.90
28530;DHT22;15737;49.760;6.632;2023-04-25T02:05:13;7.10;99.90
28530;DHT22;15737;49.760;6.632;2023-04-25T02:07:39;7.10;99.90
28530;DHT22;15737;49.760;6.632;2023-04-25T02:10:04;7.10;99.90
28530;DHT22;15737;49.760;6.632;2023-04-25T02:12:31;7.10;99.90
28530;DHT22;15737;49.760;6.632;2023-04-25T02:14:56;7.10;99.90
28530;DHT22;15737;49.760;6.632;2023-04-25T02:17:22;7.10;99.90
28530;DHT22;15737;49.760;6.632;2023-04-25T02:19:47;7.10;99.90
28530;DHT22;15737;49.760;6.632;2023-04-25T02:22:13;7.20;99.90
28530;DHT22;15737;49.760;6.632;2023-04-25T02:24:39;7.20;99.90
28530;DHT22;15737;49.760;6.632;2023-04-25T02:27:05;7.20;99.90
28530;DHT22;15737;49.760;6.632;2023-04-25T02:31:56;7.20;99.90
28530;DHT22;15737;49.760;6.632;2023-04-25T02:34:22;7.20;99.90
28530;DHT22;15737;49.760;6.632;2023-04-25T02:36:48;7.10;99.90
28530;DHT22;15737;49.760;6.632;2023-04-25T02:39:16;7.10;99.90
28530;DHT22;15737;49.760;6.632;2023-04-25T02:41:41;7.10;99.90
28530;DHT22;15737;49.760;6.632;2023-04-25T02:44:07;7.10;99.90
28530;DHT22;15737;49.760;6.632;2023-04-25T02:46:32;7.10;99.90
28530;DHT22;15737;49.760;6.632;2023-04-25T02:48:58;7.00;99.90
28530;DHT22;15737;49.760;6.632;2023-04-25T02:51:23;7.00;99.90
28530;DHT22;15737;49.760;6.632;2023-04-25T02:53:49;7.00;99.90
28530;DHT22;15737;49.760;6.632;2023-04-25T02:56:14;7.00;99.90
28530;DHT22;15737;49.760;6.632;2023-04-25T02:58:40;7.00;99.90
28530;DHT22;15737;49.760;6.632;2023-04-25T03:01:05;7.10;99.90
28530;DHT22;15737;49.760;6.632;2023-04-25T03:03:31;7.10;99.90
28530;DHT22;15737;49.760;6.632;2023-04-25T03:05:56;7.20;99.90
28530;DHT22;15737;49.760;6.632;2023-04-25T03:08:22;7.20;99.90
28530;DHT22;15737;49.760;6.632;2023-04-25T03:10:48;7.20;99.90
28530;DHT22;15737;49.760;6.632;2023-04-25T03:13:15;7.30;99.90
28530;DHT22;15737;49.760;6.632;2023-04-25T03:15:40;7.30;99.90
28530;DHT22;15737;49.760;6.632;2023-04-25T03:18:06;7.30;99.90
28530;DHT22;15737;49.760;6.632;2023-04-25T03:20:31;7.20;99.90
28530;DHT22;15737;49.760;6.632;2023-04-25T03:22:57;7.20;99.90
28530;DHT22;15737;49.760;6.632;2023-04-25T03:25:22;7.20;99.90
28530;DHT22;15737;49.760;6.632;2023-04-25T03:27:48;7.30;99.90
28530;DHT22;15737;49.760;6.632;2023-04-25T03:30:14;7.40;99.90
28530;DHT22;15737;49.760;6.632;2023-04-25T03:32:39;7.40;99.90
28530;DHT22;15737;49.760;6.632;2023-04-25T03:35:05;7.60;99.90
28530;DHT22;15737;49.760;6.632;2023-04-25T03:37:30;7.70;99.90
28530;DHT22;15737;49.760;6.632;2023-04-25T03:39:56;7.70;99.90
28530;DHT22;15737;49.760;6.632;2023-04-25T03:42:21;7.60;99.90
28530;DHT22;15737;49.760;6.632;2023-04-25T03:44:48;7.50;99.90
28530;DHT22;15737;49.760;6.632;2023-04-25T03:47:14;7.50;99.90
28530;DHT22;15737;49.760;6.632;2023-04-25T03:49:40;7.50;99.90
28530;DHT22;15737;49.760;6.632;2023-04-25T03:52:06;7.60;99.90
28530;DHT22;15737;49.760;6.632;2023-04-25T03:54:32;7.60;99.90
28530;DHT22;15737;49.760;6.632;2023-04-25T03:56:57;7.70;99.90
28530;DHT22;15737;49.760;6.632;2023-04-25T03:59:23;7.60;99.90
28530;DHT22;15737;49.760;6.632;2023-04-25T04:01:48;7.70;99.90
28530;DHT22;15737;49.760;6.632;2023-04-25T04:04:14;7.70;99.90
28530;DHT22;15737;49.760;6.632;2023-04-25T04:06:39;7.50;99.90
28530;DHT22;15737;49.760;6.632;2023-04-25T04:09:05;7.40;99.90
28530;DHT22;15737;49.760;6.632;2023-04-25T04:11:34;7.30;99.90
28530;DHT22;15737;49.760;6.632;2023-04-25T04:14:02;7.30;99.90
28530;DHT22;15737;49.760;6.632;2023-04-25T04:16:27;7.20;99.90
28530;DHT22;15737;49.760;6.632;2023-04-25T04:18:53;7.20;99.90
28530;DHT22;15737;49.760;6.632;2023-04-25T04:21:18;7.10;99.90
28530;DHT22;15737;49.760;6.632;2023-04-25T04:23:44;7.10;99.90
28530;DHT22;15737;49.760;6.632;2023-04-25T04:26:10;7.10;99.90
28530;DHT22;15737;49.760;6.632;2023-04-25T04:28:36;7.00;99.90
28530;DHT22;15737;49.760;6.632;2023-04-25T04:31:03;7.00;99.90
28530;DHT22;15737;49.760;6.632;2023-04-25T04:33:29;7.00;99.90
28530;DHT22;15737;49.760;6.632;2023-04-25T04:35:56;7.00;99.90
28530;DHT22;15737;49.760;6.632;2023-04-25T04:38:21;7.00;99.90
28530;DHT22;15737;49.760;6.632;2023-04-25T04:40:47;7.00;99.90
28530;DHT22;15737;49.760;6.632;2023-04-25T04:43:13;7.00;99.90
28530;DHT22;15737;49.760;6.632;2023-04-25T04:45:40;7.00;99.90
28530;DHT22;15737;49.760;6.632;2023-04-25T04:48:06;6.90;99.90
28530;DHT22;15737;49.760;6.632;2023-04-25T04:50:32;6.90;99.90
28530;DHT22;15737;49.760;6.632;2023-04-25T04:53:01;6.90;99.90
28530;DHT22;15737;49.760;6.632;2023-04-25T04:55:26;6.90;99.90
28530;DHT22;15737;49.760;6.632;2023-04-25T04:57:52;6.90;99.90
28530;DHT22;15737;49.760;6.632;2023-04-25T05:00:18;6.90;99.90
28530;DHT22;15737;49.760;6.632;2023-04-25T05:02:43;6.90;99.90
28530;DHT22;15737;49.760;6.632;2023-04-25T05:05:09;6.90;99.90
28530;DHT22;15737;49.760;6.632;2023-04-25T05:07:34;6.90;99.90
28530;DHT22;15737;49.760;6.632;2023-04-25T05:10:00;6.80;99.90
28530;DHT22;15737;49.760;6.632;2023-04-25T05:12:25;6.90;99.90
28530;DHT22;15737;49.760;6.632;2023-04-25T05:14:51;6.90;99.90
28530;DHT22;15737;49.760;6.632;2023-04-25T05:17:16;6.90;99.90
28530;DHT22;15737;49.760;6.632;2023-04-25T05:19:42;7.00;99.90
28530;DHT22;15737;49.760;6.632;2023-04-25T05:22:07;7.10;99.90
28530;DHT22;15737;49.760;6.632;2023-04-25T05:24:33;7.20;99.90
28530;DHT22;15737;49.760;6.632;2023-04-25T05:26:58;7.20;99.90
28530;DHT22;15737;49.760;6.632;2023-04-25T05:29:24;7.30;99.90
28530;DHT22;15737;49.760;6.632;2023-04-25T05:31:50;7.30;99.90
28530;DHT22;15737;49.760;6.632;2023-04-25T05:34:15;7.30;99.90
28530;DHT22;15737;49.760;6.632;2023-04-25T05:36:42;7.30;99.90
28530;DHT22;15737;49.760;6.632;2023-04-25T05:39:07;7.30;99.90
28530;DHT22;15737;49.760;6.632;2023-04-25T05:41:34;7.40;99.90
28530;DHT22;15737;49.760;6.632;2023-04-25T05:43:59;7.50;99.90
28530;DHT22;15737;49.760;6.632;2023-04-25T05:46:25;7.50;99.90
28530;DHT22;15737;49.760;6.632;2023-04-25T05:48:50;7.60;99.90
28530;DHT22;15737;49.760;6.632;2023-04-25T05:51:16;7.60;99.90
28530;DHT22;15737;49.760;6.632;2023-04-25T05:53:43;7.60;99.90
28530;DHT22;15737;49.760;6.632;2023-04-25T05:56:09;7.50;99.90
28530;DHT22;15737;49.760;6.632;2023-04-25T05:58:34;7.60;99.90
28530;DHT22;15737;49.760;6.632;2023-04-25T06:01:00;7.80;99.90
28530;DHT22;15737;49.760;6.632;2023-04-25T06:03:25;8.00;99.90
28530;DHT22;15737;49.760;6.632;2023-04-25T06:05:51;8.10;99.90
28530;DHT22;15737;49.760;6.632;2023-04-25T06:08:16;8.20;99.90
28530;DHT22;15737;49.760;6.632;2023-04-25T06:10:42;8.30;99.90
28530;DHT22;15737;49.760;6.632;2023-04-25T06:13:07;8.40;99.90
28530;DHT22;15737;49.760;6.632;2023-04-25T06:15:33;8.50;99.90
28530;DHT22;15737;49.760;6.632;2023-04-25T06:17:58;8.50;99.90
28530;DHT22;15737;49.760;6.632;2023-04-25T06:20:24;8.30;99.90
28530;DHT22;15737;49.760;6.632;2023-04-25T06:22:50;8.20;99.90
28530;DHT22;15737;49.760;6.632;2023-04-25T06:25:20;8.00;99.90
28530;DHT22;15737;49.760;6.632;2023-04-25T06:27:45;7.90;99.90
28530;DHT22;15737;49.760;6.632;2023-04-25T06:30:11;7.90;99.90
28530;DHT22;15737;49.760;6.632;2023-04-25T06:32:38;7.90;99.90
28530;DHT22;15737;49.760;6.632;2023-04-25T06:35:03;8.00;99.90
28530;DHT22;15737;49.760;6.632;2023-04-25T06:37:29;8.00;99.90
28530;DHT22;15737;49.760;6.632;2023-04-25T06:39:55;8.00;99.90
28530;DHT22;15737;49.760;6.632;2023-04-25T06:42:20;8.10;99.90
28530;DHT22;15737;49.760;6.632;2023-04-25T06:44:46;8.10;99.90
28530;DHT22;15737;49.760;6.632;2023-04-25T06:47:11;8.10;99.90
28530;DHT22;15737;49.760;6.632;2023-04-25T06:49:37;8.00;99.90
28530;DHT22;15737;49.760;6.632;2023-04-25T06:52:03;8.00;99.90
28530;DHT22;15737;49.760;6.632;2023-04-25T06:54:28;8.00;99.90
28530;DHT22;15737;49.760;6.632;2023-04-25T06:56:55;8.10;99.90
28530;DHT22;15737;49.760;6.632;2023-04-25T06:59:21;8.10;99.90
28530;DHT22;15737;49.760;6.632;2023-04-25T07:01:47;8.10;99.90
28530;DHT22;15737;49.760;6.632;2023-04-25T07:04:12;8.20;99.90
28530;DHT22;15737;49.760;6.632;2023-04-25T07:06:38;8.30;99.90
28530;DHT22;15737;49.760;6.632;2023-04-25T07:09:11;8.40;99.90
28530;DHT22;15737;49.760;6.632;2023-04-25T07:11:36;8.40;99.90
28530;DHT22;15737;49.760;6.632;2023-04-25T07:14:02;8.40;99.90
28530;DHT22;15737;49.760;6.632;2023-04-25T07:16:28;8.50;99.90
28530;DHT22;15737;49.760;6.632;2023-04-25T07:18:53;8.50;99.90
28530;DHT22;15737;49.760;6.632;2023-04-25T07:21:19;8.50;99.90
28530;DHT22;15737;49.760;6.632;2023-04-25T07:23:44;8.50;99.90
28530;DHT22;15737;49.760;6.632;2023-04-25T07:26:10;8.50;99.90
28530;DHT22;15737;49.760;6.632;2023-04-25T07:28:36;8.60;99.90
28530;DHT22;15737;49.760;6.632;2023-04-25T07:31:01;8.70;99.90
28530;DHT22;15737;49.760;6.632;2023-04-25T07:33:28;8.80;99.90
28530;DHT22;15737;49.760;6.632;2023-04-25T07:35:53;8.90;99.90
28530;DHT22;15737;49.760;6.632;2023-04-25T07:38:19;9.00;99.90
28530;DHT22;15737;49.760;6.632;2023-04-25T07:40:44;9.00;99.90
28530;DHT22;15737;49.760;6.632;2023-04-25T07:43:10;8.90;99.90
28530;DHT22;15737;49.760;6.632;2023-04-25T07:45:39;8.80;99.90
28530;DHT22;15737;49.760;6.632;2023-04-25T07:48:05;8.60;99.90
28530;DHT22;15737;49.760;6.632;2023-04-25T07:50:31;8.50;99.90
28530;DHT22;15737;49.760;6.632;2023-04-25T07:52:56;8.50;99.90
28530;DHT22;15737;49.760;6.632;2023-04-25T07:55:22;8.40;99.90
28530;DHT22;15737;49.760;6.632;2023-04-25T07:57:47;8.40;99.90
28530;DHT22;15737;49.760;6.632;2023-04-25T08:00:13;8.60;99.90
28530;DHT22;15737;49.760;6.632;2023-04-25T08:02:41;8.60;99.90
28530;DHT22;15737;49.760;6.632;2023-04-25T08:05:06;8.80;99.90
28530;DHT22;15737;49.760;6.632;2023-04-25T08:07:34;8.80;99.90
28530;DHT22;15737;49.760;6.632;2023-04-25T08:10:00;9.00;99.90
28530;DHT22;15737;49.760;6.632;2023-04-25T08:12:29;9.00;99.90
28530;DHT22;15737;49.760;6.632;2023-04-25T08:14:57;9.20;99.90
28530;DHT22;15737;49.760;6.632;2023-04-25T08:17:25;9.30;99.90
28530;DHT22;15737;49.760;6.632;2023-04-25T08:19:54;9.30;99.90
28530;DHT22;15737;49.760;6.632;2023-04-25T08:22:30;9.50;99.90
28530;DHT22;15737;49.760;6.632;2023-04-25T08:25:11;9.90;99.90
28530;DHT22;15737;49.760;6.632;2023-04-25T08:27:49;10.10;99.90
28530;DHT22;15737;49.760;6.632;2023-04-25T08:30:37;10.10;99.90
28530;DHT22;15737;49.760;6.632;2023-04-25T08:33:47;10.20;99.90
28530;DHT22;15737;49.760;6.632;2023-04-25T08:36:23;10.40;99.90
28530;DHT22;15737;49.760;6.632;2023-04-25T08:38:56;10.70;99.90
28530;DHT22;15737;49.760;6.632;2023-04-25T08:41:27;10.80;99.90
28530;DHT22;15737;49.760;6.632;2023-04-25T08:43:55;10.80;99.90
28530;DHT22;15737;49.760;6.632;2023-04-25T08:46:21;11.00;99.90
28530;DHT22;15737;49.760;6.632;2023-04-25T08:48:48;11.20;99.90
28530;DHT22;15737;49.760;6.632;2023-04-25T08:51:21;11.50;99.90
28530;DHT22;15737;49.760;6.632;2023-04-25T08:53:50;11.60;99.90
28530;DHT22;15737;49.760;6.632;2023-04-25T08:56:17;11.70;99.90
28530;DHT22;15737;49.760;6.632;2023-04-25T08:58:44;11.80;99.90
28530;DHT22;15737;49.760;6.632;2023-04-25T09:01:11;11.90;99.90
28530;DHT22;15737;49.760;6.632;2023-04-25T09:03:37;12.30;99.90
28530;DHT22;15737;49.760;6.632;2023-04-25T09:06:06;12.40;99.90
28530;DHT22;15737;49.760;6.632;2023-04-25T09:08:36;12.30;99.90
28530;DHT22;15737;49.760;6.632;2023-04-25T09:11:04;12.30;99.90
28530;DHT22;15737;49.760;6.632;2023-04-25T09:13:40;12.10;99.90
28530;DHT22;15737;49.760;6.632;2023-04-25T09:16:15;11.80;99.90
28530;DHT22;15737;49.760;6.632;2023-04-25T09:21:48;11.70;99.90
28530;DHT22;15737;49.760;6.632;2023-04-25T09:24:56;11.70;99.90
28530;DHT22;15737;49.760;6.632;2023-04-25T09:27:34;11.80;99.90
28530;DHT22;15737;49.760;6.632;2023-04-25T09:30:02;11.90;99.90
28530;DHT22;15737;49.760;6.632;2023-04-25T09:32:28;11.90;99.90
28530;DHT22;15737;49.760;6.632;2023-04-25T09:34:56;12.10;99.90
28530;DHT22;15737;49.760;6.632;2023-04-25T09:37:27;12.30;99.90
28530;DHT22;15737;49.760;6.632;2023-04-25T09:39:57;12.20;99.90
28530;DHT22;15737;49.760;6.632;2023-04-25T09:42:31;12.00;99.90
28530;DHT22;15737;49.760;6.632;2023-04-25T09:45:06;12.00;99.90
28530;DHT22;15737;49.760;6.632;2023-04-25T09:47:37;12.10;99.90
28530;DHT22;15737;49.760;6.632;2023-04-25T09:50:03;12.20;99.90
28530;DHT22;15737;49.760;6.632;2023-04-25T09:52:38;12.30;99.90
28530;DHT22;15737;49.760;6.632;2023-04-25T09:55:04;12.90;99.90
28530;DHT22;15737;49.760;6.632;2023-04-25T09:57:31;13.50;99.90
28530;DHT22;15737;49.760;6.632;2023-04-25T10:00:05;13.80;99.90
28530;DHT22;15737;49.760;6.632;2023-04-25T10:02:46;13.80;99.90
28530;DHT22;15737;49.760;6.632;2023-04-25T10:05:24;13.80;99.90
28530;DHT22;15737;49.760;6.632;2023-04-25T10:08:06;13.80;99.90
28530;DHT22;15737;49.760;6.632;2023-04-25T10:10:46;13.60;99.90
28530;DHT22;15737;49.760;6.632;2023-04-25T10:13:21;12.70;99.90
28530;DHT22;15737;49.760;6.632;2023-04-25T10:16:02;11.90;99.90
28530;DHT22;15737;49.760;6.632;2023-04-25T10:18:29;11.30;99.90
28530;DHT22;15737;49.760;6.632;2023-04-25T10:20:59;11.10;99.90
28530;DHT22;15737;49.760;6.632;2023-04-25T10:23:25;11.10;99.90
28530;DHT22;15737;49.760;6.632;2023-04-25T10:25:52;11.30;99.90
28530;DHT22;15737;49.760;6.632;2023-04-25T10:28:18;11.90;99.90
28530;DHT22;15737;49.760;6.632;2023-04-25T10:31:01;12.60;99.90
28530;DHT22;15737;49.760;6.632;2023-04-25T10:33:32;13.40;99.90
28530;DHT22;15737;49.760;6.632;2023-04-25T10:35:59;13.60;99.90
28530;DHT22;15737;49.760;6.632;2023-04-25T10:38:33;13.40;99.90
28530;DHT22;15737;49.760;6.632;2023-04-25T10:41:06;13.00;99.90
28530;DHT22;15737;49.760;6.632;2023-04-25T10:43:42;12.70;99.90
28530;DHT22;15737;49.760;6.632;2023-04-25T10:46:27;12.60;99.90
28530;DHT22;15737;49.760;6.632;2023-04-25T10:48:57;12.50;99.90
28530;DHT22;15737;49.760;6.632;2023-04-25T10:51:27;12.50;99.90
28530;DHT22;15737;49.760;6.632;2023-04-25T10:56:22;13.60;99.90
28530;DHT22;15737;49.760;6.632;2023-04-25T10:58:48;14.00;99.90
28530;DHT22;15737;49.760;6.632;2023-04-25T11:01:19;13.90;99.90
28530;DHT22;15737;49.760;6.632;2023-04-25T11:03:45;14.10;99.90
28530;DHT22;15737;49.760;6.632;2023-04-25T11:09:12;17.80;99.90
28530;DHT22;15737;49.760;6.632;2023-04-25T11:11:40;21.10;99.90
28530;DHT22;15737;49.760;6.632;2023-04-25T11:14:06;22.60;99.90
28530;DHT22;15737;49.760;6.632;2023-04-25T11:16:32;22.20;98.00
28530;DHT22;15737;49.760;6.632;2023-04-25T11:18:58;21.50;93.50
28530;DHT22;15737;49.760;6.632;2023-04-25T11:21:25;20.20;94.00
28530;DHT22;15737;49.760;6.632;2023-04-25T11:23:53;19.20;94.90
28530;DHT22;15737;49.760;6.632;2023-04-25T11:26:24;18.20;96.20
28530;DHT22;15737;49.760;6.632;2023-04-25T11:28:50;17.50;97.30
28530;DHT22;15737;49.760;6.632;2023-04-25T11:31:15;17.30;98.60
28530;DHT22;15737;49.760;6.632;2023-04-25T11:33:41;17.20;95.70
28530;DHT22;15737;49.760;6.632;2023-04-25T11:36:07;16.70;96.90
28530;DHT22;15737;49.760;6.632;2023-04-25T11:38:34;16.50;98.00
28530;DHT22;15737;49.760;6.632;2023-04-25T11:40:59;16.20;98.50
28530;DHT22;15737;49.760;6.632;2023-04-25T11:43:25;16.10;98.90
28530;DHT22;15737;49.760;6.632;2023-04-25T11:45:51;15.90;98.90
28530;DHT22;15737;49.760;6.632;2023-04-25T11:48:18;15.40;97.40
28530;DHT22;15737;49.760;6.632;2023-04-25T11:50:44;14.70;98.30
28530;DHT22;15737;49.760;6.632;2023-04-25T11:53:10;14.10;99.30
28530;DHT22;15737;49.760;6.632;2023-04-25T11:55:40;13.90;99.50
28530;DHT22;15737;49.760;6.632;2023-04-25T11:58:15;14.20;99.60
28530;DHT22;15737;49.760;6.632;2023-04-25T12:00:50;14.30;97.60
28530;DHT22;15737;49.760;6.632;2023-04-25T12:03:15;14.30;97.70
28530;DHT22;15737;49.760;6.632;2023-04-25T12:05:47;15.00;97.00
28530;DHT22;15737;49.760;6.632;2023-04-25T12:08:27;16.20;97.00
28530;DHT22;15737;49.760;6.632;2023-04-25T12:11:20;17.30;96.00
28530;DHT22;15737;49.760;6.632;2023-04-25T12:14:01;18.20;95.20
28530;DHT22;15737;49.760;6.632;2023-04-25T12:16:48;18.40;91.50
28530;DHT22;15737;49.760;6.632;2023-04-25T12:19:22;17.10;90.60
28530;DHT22;15737;49.760;6.632;2023-04-25T12:22:00;16.20;91.30
28530;DHT22;15737;49.760;6.632;2023-04-25T12:24:38;15.30;91.90
28530;DHT22;15737;49.760;6.632;2023-04-25T12:27:21;14.60;91.60
28530;DHT22;15737;49.760;6.632;2023-04-25T12:30:09;14.00;92.00
28530;DHT22;15737;49.760;6.632;2023-04-25T12:32:48;13.70;92.20
28530;DHT22;15737;49.760;6.632;2023-04-25T12:35:37;13.80;93.50
28530;DHT22;15737;49.760;6.632;2023-04-25T12:38:30;14.90;93.30
28530;DHT22;15737;49.760;6.632;2023-04-25T12:41:09;15.30;91.60
28530;DHT22;15737;49.760;6.632;2023-04-25T12:43:48;15.10;90.80
28530;DHT22;15737;49.760;6.632;2023-04-25T12:46:31;14.50;89.00
28530;DHT22;15737;49.760;6.632;2023-04-25T12:49:07;14.20;90.70
28530;DHT22;15737;49.760;6.632;2023-04-25T12:51:42;14.10;90.90
28530;DHT22;15737;49.760;6.632;2023-04-25T12:54:25;14.10;91.40
28530;DHT22;15737;49.760;6.632;2023-04-25T12:57:01;14.60;91.20
28530;DHT22;15737;49.760;6.632;2023-04-25T12:59:43;14.90;88.90
28530;DHT22;15737;49.760;6.632;2023-04-25T13:02:15;15.10;89.50
28530;DHT22;15737;49.760;6.632;2023-04-25T13:04:53;15.00;85.70
28530;DHT22;15737;49.760;6.632;2023-04-25T13:07:31;14.50;89.90
28530;DHT22;15737;49.760;6.632;2023-04-25T13:10:12;14.90;89.70
28530;DHT22;15737;49.760;6.632;2023-04-25T13:12:50;15.30;86.90
28530;DHT22;15737;49.760;6.632;2023-04-25T13:15:27;15.00;86.20
28530;DHT22;15737;49.760;6.632;2023-04-25T13:17:59;14.80;86.70
28530;DHT22;15737;49.760;6.632;2023-04-25T13:23:03;16.30;85.20
28530;DHT22;15737;49.760;6.632;2023-04-25T13:25:40;16.60;84.60
28530;DHT22;15737;49.760;6.632;2023-04-25T13:28:14;17.10;84.10
28530;DHT22;15737;49.760;6.632;2023-04-25T13:30:54;17.80;81.90
28530;DHT22;15737;49.760;6.632;2023-04-25T13:33:34;18.20;82.80
28530;DHT22;15737;49.760;6.632;2023-04-25T13:36:16;18.60;83.70
28530;DHT22;15737;49.760;6.632;2023-04-25T13:38:56;19.20;81.30
28530;DHT22;15737;49.760;6.632;2023-04-25T13:41:34;19.20;74.00
28530;DHT22;15737;49.760;6.632;2023-04-25T13:44:18;17.60;73.90
28530;DHT22;15737;49.760;6.632;2023-04-25T13:46:49;15.80;79.00
28530;DHT22;15737;49.760;6.632;2023-04-25T13:49:26;15.10;80.40
28530;DHT22;15737;49.760;6.632;2023-04-25T13:52:00;14.90;81.80
28530;DHT22;15737;49.760;6.632;2023-04-25T13:54:35;15.20;83.10
28530;DHT22;15737;49.760;6.632;2023-04-25T13:57:00;15.90;81.90
28530;DHT22;15737;49.760;6.632;2023-04-25T13:59:27;16.50;79.30
28530;DHT22;15737;49.760;6.632;2023-04-25T14:01:52;16.80;79.40
28530;DHT22;15737;49.760;6.632;2023-04-25T14:04:18;17.20;76.40
28530;DHT22;15737;49.760;6.632;2023-04-25T14:06:44;17.40;72.50
28530;DHT22;15737;49.760;6.632;2023-04-25T14:09:09;16.90;71.80
28530;DHT22;15737;49.760;6.632;2023-04-25T14:11:39;15.90;70.90
28530;DHT22;15737;49.760;6.632;2023-04-25T14:14:04;14.80;74.00
28530;DHT22;15737;49.760;6.632;2023-04-25T14:16:30;14.50;73.80
28530;DHT22;15737;49.760;6.632;2023-04-25T14:18:59;14.30;75.20
28530;DHT22;15737;49.760;6.632;2023-04-25T14:21:26;14.40;74.60
28530;DHT22;15737;49.760;6.632;2023-04-25T14:23:53;14.20;74.70
28530;DHT22;15737;49.760;6.632;2023-04-25T14:26:19;14.10;74.60
28530;DHT22;15737;49.760;6.632;2023-04-25T14:28:44;13.90;74.90
28530;DHT22;15737;49.760;6.632;2023-04-25T14:31:10;14.10;75.50
28530;DHT22;15737;49.760;6.632;2023-04-25T14:33:35;14.40;76.20
28530;DHT22;15737;49.760;6.632;2023-04-25T14:36:03;15.00;76.70
28530;DHT22;15737;49.760;6.632;2023-04-25T14:38:35;15.80;76.10
28530;DHT22;15737;49.760;6.632;2023-04-25T14:41:13;16.50;75.60
28530;DHT22;15737;49.760;6.632;2023-04-25T14:43:50;17.70;76.30
28530;DHT22;15737;49.760;6.632;2023-04-25T14:46:29;18.40;75.00
28530;DHT22;15737;49.760;6.632;2023-04-25T14:49:10;19.10;74.90
28530;DHT22;15737;49.760;6.632;2023-04-25T14:51:45;20.00;74.60
28530;DHT22;15737;49.760;6.632;2023-04-25T14:54:17;20.50;70.60
28530;DHT22;15737;49.760;6.632;2023-04-25T14:56:42;19.70;67.80
28530;DHT22;15737;49.760;6.632;2023-04-25T14:59:08;19.40;65.50
28530;DHT22;15737;49.760;6.632;2023-04-25T15:01:33;18.80;66.90
28530;DHT22;15737;49.760;6.632;2023-04-25T15:04:00;18.80;69.70
28530;DHT22;15737;49.760;6.632;2023-04-25T15:06:25;19.20;70.00
28530;DHT22;15737;49.760;6.632;2023-04-25T15:08:52;19.20;65.40
28530;DHT22;15737;49.760;6.632;2023-04-25T15:11:18;18.10;64.90
28530;DHT22;15737;49.760;6.632;2023-04-25T15:13:45;17.30;65.80
28530;DHT22;15737;49.760;6.632;2023-04-25T15:16:11;17.20;69.00
28530;DHT22;15737;49.760;6.632;2023-04-25T15:18:36;16.80;67.70
28530;DHT22;15737;49.760;6.632;2023-04-25T15:21:02;16.30;67.20
28530;DHT22;15737;49.760;6.632;2023-04-25T15:23:28;15.90;67.00
28530;DHT22;15737;49.760;6.632;2023-04-25T15:25:53;15.50;69.40
28530;DHT22;15737;49.760;6.632;2023-04-25T15:28:19;15.40;68.40
28530;DHT22;15737;49.760;6.632;2023-04-25T15:30:46;15.10;69.50
28530;DHT22;15737;49.760;6.632;2023-04-25T15:33:12;15.00;69.00
28530;DHT22;15737;49.760;6.632;2023-04-25T15:35:46;14.50;69.30
28530;DHT22;15737;49.760;6.632;2023-04-25T15:38:17;14.20;71.70
28530;DHT22;15737;49.760;6.632;2023-04-25T15:40:53;14.30;72.80
28530;DHT22;15737;49.760;6.632;2023-04-25T15:43:25;14.30;72.10
28530;DHT22;15737;49.760;6.632;2023-04-25T15:45:51;14.50;72.00
28530;DHT22;15737;49.760;6.632;2023-04-25T15:48:23;14.10;70.20
28530;DHT22;15737;49.760;6.632;2023-04-25T15:51:04;13.40;71.60
28530;DHT22;15737;49.760;6.632;2023-04-25T15:53:34;12.80;73.00
28530;DHT22;15737;49.760;6.632;2023-04-25T15:56:09;12.60;75.30
28530;DHT22;15737;49.760;6.632;2023-04-25T15:58:41;12.40;75.00
28530;DHT22;15737;49.760;6.632;2023-04-25T16:01:06;12.20;75.80
28530;DHT22;15737;49.760;6.632;2023-04-25T16:03:32;12.20;76.90